Rumpus Ridge, South Dakota
Current Conditions -  °F | °C
As of 8:56 PM on Friday 21 Nov 2014 (Local Time) from KFSD Reporting Station
Overcast Overcast  
Wind Chill: 25°   Ceiling: 11000
Heat Index: 33°   Visibility: 10mi
Dew Point: 28°   Wind: 9mph
Humidity: 82%   Direction: 190°S
Pressure: 29.88"   Gusts: NA
Location:  43.5855°N, 97.3085°W
Report Text: KFSD 220256Z 19008KT 10SM OVC110 01/M02 A2988 RMK AO2 SLP136 T00061022 58007
Loading
Personal Weather Stations






























Interactive Weather Map New forecast layout! Learn more

10-Day Weather Forecast

Advertisements
Track Severe Weather on mobile